createdAt,value
2023-04-03T00:00:09.640Z,1026.55
2023-04-03T00:01:09.630Z,1026.53
2023-04-03T00:02:09.673Z,1026.52
2023-04-03T00:03:09.648Z,1026.58
2023-04-03T00:04:09.611Z,1026.52
2023-04-03T00:05:09.612Z,1026.57
2023-04-03T00:06:09.569Z,1026.57
2023-04-03T00:07:09.567Z,1026.53
2023-04-03T00:08:09.566Z,1026.57
2023-04-03T00:09:10.668Z,1026.53
2023-04-03T00:10:09.529Z,1026.59
2023-04-03T00:11:09.523Z,1026.53
2023-04-03T00:12:09.538Z,1026.63
2023-04-03T00:13:09.501Z,1026.57
2023-04-03T00:14:09.508Z,1026.52
2023-04-03T00:15:09.478Z,1026.51
2023-04-03T00:16:09.462Z,1026.49
2023-04-03T00:17:09.501Z,1026.53
2023-04-03T00:18:09.463Z,1026.52
2023-04-03T00:19:09.456Z,1026.56
2023-04-03T00:20:09.428Z,1026.55
2023-04-03T00:21:09.411Z,1026.52
2023-04-03T00:22:09.433Z,1026.61
2023-04-03T00:23:09.385Z,1026.59
2023-04-03T00:24:09.374Z,1026.57
2023-04-03T00:25:09.369Z,1026.56
2023-04-03T00:26:09.357Z,1026.53
2023-04-03T00:27:09.363Z,1026.52
2023-04-03T00:28:09.334Z,1026.54
2023-04-03T00:29:09.321Z,1026.54
2023-04-03T00:30:09.313Z,1026.54
2023-04-03T00:31:09.336Z,1026.57
2023-04-03T00:32:09.324Z,1026.57
2023-04-03T00:33:09.306Z,1026.61
2023-04-03T00:34:09.294Z,1026.57
2023-04-03T00:35:09.278Z,1026.56
2023-04-03T00:36:09.292Z,1026.55
2023-04-03T00:37:09.265Z,1026.62
2023-04-03T00:38:09.249Z,1026.58
2023-04-03T00:39:09.214Z,1026.60
2023-04-03T00:40:09.219Z,1026.64
2023-04-03T00:41:09.212Z,1026.63
2023-04-03T00:42:09.178Z,1026.61
2023-04-03T00:43:09.187Z,1026.61
2023-04-03T00:44:09.158Z,1026.62
2023-04-03T00:45:09.170Z,1026.55
2023-04-03T00:46:09.170Z,1026.62
2023-04-03T00:47:09.127Z,1026.58
2023-04-03T00:48:09.141Z,1026.56
2023-04-03T00:49:09.105Z,1026.63
2023-04-03T00:50:09.132Z,1026.62
2023-04-03T00:51:09.078Z,1026.62
2023-04-03T00:52:09.067Z,1026.55
2023-04-03T00:53:09.093Z,1026.57
2023-04-03T00:54:09.044Z,1026.58
2023-04-03T00:55:09.043Z,1026.57
2023-04-03T00:56:09.022Z,1026.54
2023-04-03T00:57:09.065Z,1026.57
2023-04-03T00:58:09.032Z,1026.58
2023-04-03T00:59:08.997Z,1026.62
2023-04-03T01:00:09.024Z,1026.60
2023-04-03T01:01:08.978Z,1026.57
2023-04-03T01:02:08.964Z,1026.61
2023-04-03T01:03:08.949Z,1026.60
2023-04-03T01:04:08.967Z,1026.61
2023-04-03T01:05:08.954Z,1026.59
2023-04-03T01:06:08.934Z,1026.60
2023-04-03T01:07:08.906Z,1026.61
2023-04-03T01:08:08.898Z,1026.54
2023-04-03T01:09:08.890Z,1026.55
2023-04-03T01:10:08.895Z,1026.59
2023-04-03T01:11:08.876Z,1026.56
2023-04-03T01:12:08.851Z,1026.60
2023-04-03T01:13:08.853Z,1026.62
2023-04-03T01:14:08.841Z,1026.61
2023-04-03T01:15:08.851Z,1026.64
2023-04-03T01:16:08.934Z,1026.66
2023-04-03T01:17:08.826Z,1026.61
2023-04-03T01:18:08.827Z,1026.65
2023-04-03T01:19:08.780Z,1026.61
2023-04-03T01:20:08.783Z,1026.65
2023-04-03T01:21:08.774Z,1026.56
2023-04-03T01:22:08.778Z,1026.63
2023-04-03T01:23:08.747Z,1026.62
2023-04-03T01:24:08.777Z,1026.64
2023-04-03T01:25:08.736Z,1026.65
2023-04-03T01:26:08.743Z,1026.66
2023-04-03T01:27:08.699Z,1026.63
2023-04-03T01:28:08.685Z,1026.63
2023-04-03T01:29:08.676Z,1026.64
2023-04-03T01:30:08.664Z,1026.64
2023-04-03T01:31:08.735Z,1026.62
2023-04-03T01:32:08.637Z,1026.67
2023-04-03T01:33:08.692Z,1026.64
2023-04-03T01:34:08.618Z,1026.68
2023-04-03T01:35:08.602Z,1026.71
2023-04-03T01:36:08.648Z,1026.74
2023-04-03T01:37:08.579Z,1026.64
2023-04-03T01:38:08.599Z,1026.71
2023-04-03T01:39:08.564Z,1026.66
2023-04-03T01:40:08.555Z,1026.70
2023-04-03T01:41:08.561Z,1026.73
2023-04-03T01:42:08.542Z,1026.78
2023-04-03T01:43:08.513Z,1026.72
2023-04-03T01:44:08.513Z,1026.80
2023-04-03T01:45:08.499Z,1026.82
2023-04-03T01:46:08.536Z,1026.82
2023-04-03T01:47:08.497Z,1026.84
2023-04-03T01:48:08.490Z,1026.80
2023-04-03T01:49:08.449Z,1026.89
2023-04-03T01:50:08.446Z,1026.79
2023-04-03T01:51:08.452Z,1026.84
2023-04-03T01:52:08.419Z,1026.81
2023-04-03T01:53:08.427Z,1026.86
2023-04-03T01:54:08.420Z,1026.83
2023-04-03T01:55:08.401Z,1026.90
2023-04-03T01:56:08.398Z,1026.82
2023-04-03T01:57:08.371Z,1026.80
2023-04-03T01:58:08.376Z,1026.87
2023-04-03T01:59:08.363Z,1026.85
2023-04-03T02:00:08.342Z,1026.87
2023-04-03T02:01:08.344Z,1026.83
2023-04-03T02:02:08.312Z,1026.90
2023-04-03T02:03:08.371Z,1026.85
2023-04-03T02:04:08.331Z,1026.89
2023-04-03T02:05:08.278Z,1026.84
2023-04-03T02:06:08.274Z,1026.91
2023-04-03T02:07:08.275Z,1026.86
2023-04-03T02:08:08.274Z,1026.85
2023-04-03T02:09:08.232Z,1026.91
2023-04-03T02:10:08.278Z,1026.83
2023-04-03T02:11:08.218Z,1026.89
2023-04-03T02:12:08.202Z,1026.84
2023-04-03T02:13:08.215Z,1026.82
2023-04-03T02:14:08.179Z,1026.84
2023-04-03T02:15:08.169Z,1026.86
2023-04-03T02:16:08.171Z,1026.79
2023-04-03T02:17:08.144Z,1026.87
2023-04-03T02:18:08.250Z,1026.90
2023-04-03T02:19:08.145Z,1026.91
2023-04-03T02:20:08.116Z,1026.98
2023-04-03T02:21:08.097Z,1026.93
2023-04-03T02:22:08.096Z,1026.97
2023-04-03T02:23:08.076Z,1026.95
2023-04-03T02:24:08.094Z,1026.96
2023-04-03T02:25:08.059Z,1026.98
2023-04-03T02:26:08.102Z,1027.05
2023-04-03T02:27:08.037Z,1027.04
2023-04-03T02:28:08.038Z,1026.95
2023-04-03T02:29:08.013Z,1026.99
2023-04-03T02:30:08.006Z,1027.08
2023-04-03T02:31:08.056Z,1027.04
2023-04-03T02:32:07.988Z,1027.04
2023-04-03T02:33:08.037Z,1027.04
2023-04-03T02:34:07.964Z,1027.03
2023-04-03T02:35:07.953Z,1027.06
2023-04-03T02:36:08.012Z,1027.09
2023-04-03T02:37:07.931Z,1027.09
2023-04-03T02:38:07.959Z,1027.12
2023-04-03T02:39:07.900Z,1027.07
2023-04-03T02:40:07.923Z,1027.14
2023-04-03T02:41:07.884Z,1027.14
2023-04-03T02:42:07.896Z,1027.14
2023-04-03T02:43:07.862Z,1027.17
2023-04-03T02:44:07.872Z,1027.18
2023-04-03T02:45:07.871Z,1027.19
2023-04-03T02:46:07.965Z,1027.21
2023-04-03T02:47:07.819Z,1027.22
2023-04-03T02:48:07.915Z,1027.20
2023-04-03T02:49:07.827Z,1027.22
2023-04-03T02:50:07.797Z,1027.19
2023-04-03T02:51:07.782Z,1027.20
2023-04-03T02:52:07.777Z,1027.25
2023-04-03T02:53:07.763Z,1027.22
2023-04-03T02:54:07.806Z,1027.22
2023-04-03T02:55:07.739Z,1027.27
2023-04-03T02:56:07.736Z,1027.25
2023-04-03T02:57:07.767Z,1027.23
2023-04-03T02:58:09.781Z,1027.26
2023-04-03T02:59:07.694Z,1027.23
2023-04-03T03:00:07.697Z,1027.26
2023-04-03T03:01:07.674Z,1027.21
2023-04-03T03:02:07.683Z,1027.31
2023-04-03T03:03:07.796Z,1027.30
2023-04-03T03:04:07.645Z,1027.22
2023-04-03T03:05:07.716Z,1027.26
2023-04-03T03:06:07.624Z,1027.32
2023-04-03T03:07:07.606Z,1027.26
2023-04-03T03:08:07.600Z,1027.21
2023-04-03T03:09:07.611Z,1027.29
2023-04-03T03:10:07.585Z,1027.26
2023-04-03T03:11:07.573Z,1027.25
2023-04-03T03:12:07.563Z,1027.28
2023-04-03T03:13:07.542Z,1027.28
2023-04-03T03:14:07.574Z,1027.33
2023-04-03T03:15:07.529Z,1027.31
2023-04-03T03:16:07.567Z,1027.28
2023-04-03T03:17:07.539Z,1027.26
2023-04-03T03:18:07.550Z,1027.31
2023-04-03T03:19:07.478Z,1027.35
2023-04-03T03:20:07.473Z,1027.38
2023-04-03T03:21:07.476Z,1027.38
2023-04-03T03:22:07.445Z,1027.36
2023-04-03T03:23:07.450Z,1027.34
2023-04-03T03:24:07.428Z,1027.36
2023-04-03T03:25:07.416Z,1027.38
2023-04-03T03:26:07.433Z,1027.30
2023-04-03T03:27:07.396Z,1027.32
2023-04-03T03:28:07.383Z,1027.38
2023-04-03T03:29:07.367Z,1027.32
2023-04-03T03:30:07.387Z,1027.37
2023-04-03T03:31:07.448Z,1027.34
2023-04-03T03:32:07.344Z,1027.41
2023-04-03T03:33:07.421Z,1027.39
2023-04-03T03:34:07.319Z,1027.40
2023-04-03T03:35:07.348Z,1027.40
2023-04-03T03:36:07.334Z,1027.38
2023-04-03T03:37:07.283Z,1027.43
2023-04-03T03:38:07.275Z,1027.38
2023-04-03T03:39:07.288Z,1027.41
2023-04-03T03:40:07.254Z,1027.40
2023-04-03T03:41:07.269Z,1027.35
2023-04-03T03:42:07.232Z,1027.38
2023-04-03T03:43:07.226Z,1027.43
2023-04-03T03:44:07.212Z,1027.42
2023-04-03T03:45:07.196Z,1027.36
2023-04-03T03:46:07.262Z,1027.43
2023-04-03T03:47:07.170Z,1027.36
2023-04-03T03:48:07.193Z,1027.38
2023-04-03T03:49:07.153Z,1027.36
2023-04-03T03:50:07.141Z,1027.40
2023-04-03T03:51:07.194Z,1027.32
2023-04-03T03:52:07.130Z,1027.36
2023-04-03T03:53:07.116Z,1027.37
2023-04-03T03:54:07.111Z,1027.38
2023-04-03T03:55:07.089Z,1027.36
2023-04-03T03:56:07.082Z,1027.39
2023-04-03T03:57:07.131Z,1027.42
2023-04-03T03:58:07.067Z,1027.47
2023-04-03T03:59:07.044Z,1027.41
2023-04-03T04:00:07.063Z,1027.34
2023-04-03T04:01:07.096Z,1027.39
2023-04-03T04:02:07.086Z,1027.41
2023-04-03T04:03:07.073Z,1027.39
2023-04-03T04:04:07.038Z,1027.40
2023-04-03T04:05:06.988Z,1027.44
2023-04-03T04:06:06.975Z,1027.35
2023-04-03T04:07:06.989Z,1027.39
2023-04-03T04:08:06.959Z,1027.36
2023-04-03T04:09:06.945Z,1027.33
2023-04-03T04:10:06.934Z,1027.31
2023-04-03T04:11:06.934Z,1027.39
2023-04-03T04:12:06.944Z,1027.34
2023-04-03T04:13:06.915Z,1027.41
2023-04-03T04:14:06.911Z,1027.37
2023-04-03T04:15:06.877Z,1027.32
2023-04-03T04:16:06.872Z,1027.34
2023-04-03T04:17:06.926Z,1027.32
2023-04-03T04:18:06.937Z,1027.33
2023-04-03T04:19:08.766Z,1027.35
2023-04-03T04:20:06.832Z,1027.34
2023-04-03T04:21:06.860Z,1027.35
2023-04-03T04:22:06.807Z,1027.34
2023-04-03T04:23:06.835Z,1027.28
2023-04-03T04:24:06.787Z,1027.36
2023-04-03T04:25:06.776Z,1027.36
2023-04-03T04:26:06.762Z,1027.37
2023-04-03T04:27:06.748Z,1027.33
2023-04-03T04:28:06.757Z,1027.34
2023-04-03T04:29:06.734Z,1027.38
2023-04-03T04:30:06.714Z,1027.33
2023-04-03T04:31:06.795Z,1027.33
2023-04-03T04:32:06.700Z,1027.41
2023-04-03T04:33:06.721Z,1027.41
2023-04-03T04:34:06.702Z,1027.37
2023-04-03T04:35:06.688Z,1027.42
2023-04-03T04:36:06.707Z,1027.40
2023-04-03T04:37:06.762Z,1027.41
2023-04-03T04:38:06.629Z,1027.42
2023-04-03T04:39:06.612Z,1027.36
2023-04-03T04:40:06.623Z,1027.41
2023-04-03T04:41:06.622Z,1027.37
2023-04-03T04:42:06.612Z,1027.43
2023-04-03T04:43:06.572Z,1027.39
2023-04-03T04:44:06.566Z,1027.42
2023-04-03T04:45:06.554Z,1027.46
2023-04-03T04:46:06.642Z,1027.44
2023-04-03T04:47:06.529Z,1027.44
2023-04-03T04:48:06.547Z,1027.51
2023-04-03T04:49:06.511Z,1027.46
2023-04-03T04:50:06.522Z,1027.47
2023-04-03T04:51:06.490Z,1027.45
2023-04-03T04:52:06.503Z,1027.51
2023-04-03T04:53:06.479Z,1027.52
2023-04-03T04:54:06.454Z,1027.52
2023-04-03T04:55:06.438Z,1027.51
2023-04-03T04:56:06.436Z,1027.52
2023-04-03T04:57:06.473Z,1027.56
2023-04-03T04:58:06.416Z,1027.62
2023-04-03T04:59:06.399Z,1027.62
2023-04-03T05:00:06.397Z,1027.65
2023-04-03T05:01:06.396Z,1027.61
2023-04-03T05:02:06.461Z,1027.63
2023-04-03T05:03:06.381Z,1027.61
2023-04-03T05:04:06.377Z,1027.62
2023-04-03T05:05:06.425Z,1027.63
2023-04-03T05:06:06.357Z,1027.66
2023-04-03T05:07:06.340Z,1027.69
2023-04-03T05:08:06.309Z,1027.70
2023-04-03T05:09:06.298Z,1027.64
2023-04-03T05:10:06.290Z,1027.69
2023-04-03T05:11:06.308Z,1027.66
2023-04-03T05:12:06.283Z,1027.66
2023-04-03T05:13:06.259Z,1027.68
2023-04-03T05:14:06.306Z,1027.66
2023-04-03T05:15:06.258Z,1027.72
2023-04-03T05:16:06.288Z,1027.69
2023-04-03T05:17:06.208Z,1027.73
2023-04-03T05:18:06.246Z,1027.70
2023-04-03T05:19:06.189Z,1027.68
2023-04-03T05:20:06.226Z,1027.72
2023-04-03T05:21:06.172Z,1027.74
2023-04-03T05:22:06.220Z,1027.68
2023-04-03T05:23:06.144Z,1027.76
2023-04-03T05:24:06.144Z,1027.79
2023-04-03T05:25:06.124Z,1027.68
2023-04-03T05:26:06.117Z,1027.79
2023-04-03T05:27:06.140Z,1027.77
2023-04-03T05:28:06.091Z,1027.75
2023-04-03T05:29:06.085Z,1027.74
2023-04-03T05:30:06.068Z,1027.76
2023-04-03T05:31:06.123Z,1027.79
2023-04-03T05:32:06.076Z,1027.82
2023-04-03T05:33:06.099Z,1027.83
2023-04-03T05:34:06.026Z,1027.85
2023-04-03T05:35:06.044Z,1027.85
2023-04-03T05:36:06.059Z,1027.86
2023-04-03T05:37:06.028Z,1027.88
2023-04-03T05:38:06.056Z,1027.85
2023-04-03T05:39:05.970Z,1027.86
2023-04-03T05:40:05.963Z,1027.93
2023-04-03T05:41:05.947Z,1027.93
2023-04-03T05:42:05.945Z,1027.89
2023-04-03T05:43:05.991Z,1027.91
2023-04-03T05:44:05.919Z,1027.90
2023-04-03T05:45:05.925Z,1027.90
2023-04-03T05:46:05.940Z,1027.90
2023-04-03T05:47:05.886Z,1027.89
2023-04-03T05:48:05.981Z,1027.92
2023-04-03T05:49:05.869Z,1027.93
2023-04-03T05:50:05.916Z,1027.91
2023-04-03T05:51:05.844Z,1027.94
2023-04-03T05:52:05.820Z,1027.91
2023-04-03T05:53:05.824Z,1028.01
2023-04-03T05:54:05.824Z,1027.98
2023-04-03T05:55:05.826Z,1027.94
2023-04-03T05:56:05.788Z,1027.96
2023-04-03T05:57:05.811Z,1028.03
2023-04-03T05:58:05.761Z,1027.99
2023-04-03T05:59:05.761Z,1027.98
2023-04-03T06:00:05.772Z,1027.95
2023-04-03T06:01:05.731Z,1027.98
2023-04-03T06:02:05.727Z,1028.12
2023-04-03T06:03:05.946Z,1027.99
2023-04-03T06:04:05.810Z,1028.01
2023-04-03T06:05:05.771Z,1028.01
2023-04-03T06:06:05.681Z,1028.01
2023-04-03T06:07:05.671Z,1028.07
2023-04-03T06:08:05.651Z,1028.10
2023-04-03T06:09:05.648Z,1028.05
2023-04-03T06:10:05.655Z,1028.05
2023-04-03T06:11:05.665Z,1028.11
2023-04-03T06:12:05.619Z,1028.10
2023-04-03T06:13:05.602Z,1028.11
2023-04-03T06:14:05.589Z,1028.09
2023-04-03T06:15:05.586Z,1028.13
2023-04-03T06:16:05.594Z,1028.12
2023-04-03T06:17:05.598Z,1028.17
2023-04-03T06:18:05.564Z,1028.18
2023-04-03T06:19:05.751Z,1028.11
2023-04-03T06:20:05.547Z,1028.18
2023-04-03T06:21:05.515Z,1028.19
2023-04-03T06:22:05.530Z,1028.23
2023-04-03T06:23:07.354Z,1028.16
2023-04-03T06:24:05.503Z,1028.18
2023-04-03T06:25:05.478Z,1028.17
2023-04-03T06:26:05.502Z,1028.17
2023-04-03T06:27:05.485Z,1028.17
2023-04-03T06:28:05.437Z,1028.20
2023-04-03T06:29:05.438Z,1028.24
2023-04-03T06:30:05.418Z,1028.19
2023-04-03T06:31:05.452Z,1028.18
2023-04-03T06:32:05.615Z,1028.20
2023-04-03T06:33:05.412Z,1028.15
2023-04-03T06:34:07.205Z,1028.19
2023-04-03T06:35:05.371Z,1028.16
2023-04-03T06:36:05.433Z,1028.24
2023-04-03T06:37:05.378Z,1028.21
2023-04-03T06:38:05.332Z,1028.22
2023-04-03T06:39:05.328Z,1028.25
2023-04-03T06:40:05.310Z,1028.15
2023-04-03T06:41:05.319Z,1028.16
2023-04-03T06:42:05.307Z,1028.18
2023-04-03T06:43:05.295Z,1028.16
2023-04-03T06:44:05.298Z,1028.21
2023-04-03T06:45:05.260Z,1028.25
2023-04-03T06:46:05.271Z,1028.31
2023-04-03T06:47:05.235Z,1028.29
2023-04-03T06:48:05.287Z,1028.27
2023-04-03T06:49:05.229Z,1028.29
2023-04-03T06:50:05.216Z,1028.29
2023-04-03T06:51:05.194Z,1028.29
2023-04-03T06:52:05.179Z,1028.26
2023-04-03T06:53:05.194Z,1028.34
2023-04-03T06:54:05.187Z,1028.37
2023-04-03T06:55:05.153Z,1028.36
2023-04-03T06:56:05.138Z,1028.44
2023-04-03T06:57:05.149Z,1028.40
2023-04-03T06:58:05.215Z,1028.46
2023-04-03T06:59:05.136Z,1028.41
2023-04-03T07:00:05.099Z,1028.46
2023-04-03T07:01:05.085Z,1028.42
2023-04-03T07:02:05.132Z,1028.49
2023-04-03T07:03:05.111Z,1028.54
2023-04-03T07:04:05.148Z,1028.61
2023-04-03T07:05:05.081Z,1028.50
2023-04-03T07:06:05.026Z,1028.54
2023-04-03T07:07:05.016Z,1028.54
2023-04-03T07:08:05.024Z,1028.60
2023-04-03T07:09:05.030Z,1028.56
2023-04-03T07:10:04.982Z,1028.65
2023-04-03T07:11:04.985Z,1028.60
2023-04-03T07:12:04.973Z,1028.58
2023-04-03T07:13:04.960Z,1028.63
2023-04-03T07:14:04.992Z,1028.66
2023-04-03T07:15:04.957Z,1028.67
2023-04-03T07:16:04.986Z,1028.63
2023-04-03T07:17:04.918Z,1028.68
2023-04-03T07:18:04.955Z,1028.73
2023-04-03T07:19:04.920Z,1028.69
2023-04-03T07:20:04.948Z,1028.65
2023-04-03T07:21:04.865Z,1028.70
2023-04-03T07:22:04.858Z,1028.71
2023-04-03T07:23:04.850Z,1028.80
2023-04-03T07:24:04.858Z,1028.59
2023-04-03T07:25:04.874Z,1028.66
2023-04-03T07:26:04.814Z,1028.71
2023-04-03T07:27:04.812Z,1028.73
2023-04-03T07:28:04.794Z,1028.71
2023-04-03T07:29:04.805Z,1028.72
2023-04-03T07:30:04.883Z,1028.75
2023-04-03T07:31:04.774Z,1028.75
2023-04-03T07:32:04.774Z,1028.72
2023-04-03T07:33:04.755Z,1028.72
2023-04-03T07:34:04.733Z,1028.72
2023-04-03T07:35:04.748Z,1028.80
2023-04-03T07:36:04.773Z,1028.78
2023-04-03T07:37:04.696Z,1028.69
2023-04-03T07:38:04.696Z,1028.69
2023-04-03T07:39:04.673Z,1028.86
2023-04-03T07:40:04.689Z,1028.71
2023-04-03T07:41:04.648Z,1028.76
2023-04-03T07:42:04.639Z,1028.77
2023-04-03T07:43:04.648Z,1028.80
2023-04-03T07:44:04.621Z,1028.80
2023-04-03T07:45:04.613Z,1028.90
2023-04-03T07:46:04.719Z,1028.89
2023-04-03T07:47:04.596Z,1028.83
2023-04-03T07:48:04.657Z,1028.83
2023-04-03T07:49:04.566Z,1028.78
2023-04-03T07:50:04.584Z,1028.82
2023-04-03T07:51:04.539Z,1028.93
2023-04-03T07:52:04.534Z,1028.85
2023-04-03T07:53:04.527Z,1028.85
2023-04-03T07:54:04.512Z,1028.87
2023-04-03T07:55:04.530Z,1028.86
2023-04-03T07:56:04.491Z,1028.90
2023-04-03T07:57:04.501Z,1028.79
2023-04-03T07:58:04.468Z,1028.88
2023-04-03T07:59:04.463Z,1028.81
2023-04-03T08:00:04.461Z,1028.88
2023-04-03T08:01:04.442Z,1028.78
2023-04-03T08:02:04.459Z,1028.79
2023-04-03T08:03:04.543Z,1028.85
2023-04-03T08:04:04.468Z,1028.88
2023-04-03T08:05:04.414Z,1028.81
2023-04-03T08:06:04.512Z,1028.76
2023-04-03T08:07:04.374Z,1028.81
2023-04-03T08:08:04.358Z,1028.80
2023-04-03T08:09:04.351Z,1028.86
2023-04-03T08:10:04.340Z,1028.82
2023-04-03T08:11:04.345Z,1028.80
2023-04-03T08:12:04.339Z,1028.81
2023-04-03T08:13:04.332Z,1028.86
2023-04-03T08:14:04.293Z,1028.79
2023-04-03T08:15:04.285Z,1028.98
2023-04-03T08:16:04.307Z,1028.87
2023-04-03T08:17:04.289Z,1028.84
2023-04-03T08:18:04.319Z,1028.92
2023-04-03T08:19:07.385Z,1028.83
2023-04-03T08:20:05.233Z,1028.94
2023-04-03T08:21:04.244Z,1028.92
2023-04-03T08:22:04.213Z,1028.87
2023-04-03T08:23:04.194Z,1028.87
2023-04-03T08:24:04.191Z,1028.93
2023-04-03T08:25:04.171Z,1028.92
2023-04-03T08:26:04.188Z,1028.95
2023-04-03T08:27:04.157Z,1028.90
2023-04-03T08:28:04.141Z,1028.97
2023-04-03T08:29:04.166Z,1028.93
2023-04-03T08:30:04.130Z,1028.91
2023-04-03T08:31:04.164Z,1029.04
2023-04-03T08:32:04.094Z,1028.92
2023-04-03T08:33:04.147Z,1028.84
2023-04-03T08:34:04.124Z,1028.87
2023-04-03T08:35:04.069Z,1028.92
2023-04-03T08:36:04.094Z,1028.84
2023-04-03T08:37:04.064Z,1028.89
2023-04-03T08:38:04.030Z,1028.69
2023-04-03T08:39:04.076Z,1028.75
2023-04-03T08:40:04.013Z,1028.74
2023-04-03T08:41:04.029Z,1028.81
2023-04-03T08:42:04.006Z,1028.82
2023-04-03T08:43:03.980Z,1028.83
2023-04-03T08:44:03.967Z,1028.81
2023-04-03T08:45:03.959Z,1028.82
2023-04-03T08:46:03.991Z,1028.79
2023-04-03T08:47:03.941Z,1028.84
2023-04-03T08:48:03.960Z,1028.81
2023-04-03T08:49:03.975Z,1028.90
2023-04-03T08:50:04.018Z,1028.86
2023-04-03T08:51:03.975Z,1028.72
2023-04-03T08:52:03.884Z,1028.70
2023-04-03T08:53:03.868Z,1028.70
2023-04-03T08:54:03.863Z,1028.79
2023-04-03T08:55:03.845Z,1028.75
2023-04-03T08:56:03.831Z,1028.81
2023-04-03T08:57:03.882Z,1028.69
2023-04-03T08:58:03.825Z,1028.93
2023-04-03T08:59:03.804Z,1029.12
2023-04-03T09:00:03.792Z,1029.07
2023-04-03T09:01:03.825Z,1029.05
2023-04-03T09:02:03.814Z,1028.88
2023-04-03T09:03:03.824Z,1028.88
2023-04-03T09:04:03.795Z,1028.75
2023-04-03T09:05:03.773Z,1028.84
2023-04-03T09:06:03.869Z,1028.82
2023-04-03T09:07:03.719Z,1028.80
2023-04-03T09:08:03.713Z,1028.83
2023-04-03T09:09:03.701Z,1028.80
2023-04-03T09:10:03.682Z,1028.86
2023-04-03T09:11:03.706Z,1028.73
2023-04-03T09:12:03.666Z,1028.76
2023-04-03T09:13:03.660Z,1028.80
2023-04-03T09:14:03.631Z,1028.74
2023-04-03T09:15:03.631Z,1028.76
2023-04-03T09:16:03.649Z,1028.71
2023-04-03T09:17:03.635Z,1028.75
2023-04-03T09:18:03.672Z,1028.75
2023-04-03T09:19:03.589Z,1028.71
2023-04-03T09:20:03.568Z,1028.76
2023-04-03T09:21:03.566Z,1028.84
2023-04-03T09:22:03.679Z,1028.79
2023-04-03T09:23:03.537Z,1028.77
2023-04-03T09:24:03.555Z,1028.75
2023-04-03T09:25:03.518Z,1028.74
2023-04-03T09:26:03.508Z,1028.79
2023-04-03T09:27:03.575Z,1028.79
2023-04-03T09:28:03.502Z,1028.72
2023-04-03T09:29:03.486Z,1028.85
2023-04-03T09:30:03.486Z,1028.80
2023-04-03T09:31:03.480Z,1028.87
2023-04-03T09:32:03.453Z,1028.83
2023-04-03T09:33:03.540Z,1028.82
2023-04-03T09:34:03.426Z,1028.74
2023-04-03T09:35:09.529Z,1028.78
2023-04-03T09:36:04.425Z,1028.72
2023-04-03T09:37:03.411Z,1028.80
2023-04-03T09:38:03.493Z,1028.73
2023-04-03T09:39:03.370Z,1028.74
2023-04-03T09:40:03.361Z,1028.73
2023-04-03T09:41:03.362Z,1028.61
2023-04-03T09:42:03.327Z,1028.68
2023-04-03T09:43:03.329Z,1028.72
2023-04-03T09:44:03.321Z,1028.61
2023-04-03T09:45:03.335Z,1028.64
2023-04-03T09:46:03.287Z,1028.67
2023-04-03T09:47:03.313Z,1028.71
2023-04-03T09:48:03.348Z,1028.69
2023-04-03T09:49:08.773Z,1028.66
2023-04-03T09:50:04.281Z,1028.69
2023-04-03T09:51:03.234Z,1028.72
2023-04-03T09:52:03.239Z,1028.69
2023-04-03T09:53:03.205Z,1028.62
2023-04-03T09:54:03.319Z,1028.65
2023-04-03T09:55:03.206Z,1028.65
2023-04-03T09:56:03.183Z,1028.62
2023-04-03T09:57:03.203Z,1028.64
2023-04-03T09:58:03.163Z,1028.65
2023-04-03T09:59:03.152Z,1028.56
2023-04-03T10:00:03.190Z,1028.54
2023-04-03T10:01:03.139Z,1028.50
2023-04-03T10:02:03.114Z,1028.54
2023-04-03T10:03:03.170Z,1028.63
2023-04-03T10:04:03.136Z,1028.53
2023-04-03T10:06:03.069Z,1028.54
2023-04-03T10:07:03.081Z,1028.53
2023-04-03T10:08:04.128Z,1028.54
2023-04-03T10:09:03.031Z,1028.57
2023-04-03T10:10:03.161Z,1028.49
2023-04-03T10:11:03.039Z,1028.54
2023-04-03T10:12:03.005Z,1028.55
2023-04-03T10:13:02.989Z,1028.53
2023-04-03T10:14:02.988Z,1028.48
2023-04-03T10:15:02.974Z,1028.51
2023-04-03T10:16:02.988Z,1028.49
2023-04-03T10:17:02.989Z,1028.44
2023-04-03T10:18:14.321Z,1028.58
2023-04-03T10:19:03.922Z,1028.55
2023-04-03T10:20:02.939Z,1028.51
2023-04-03T10:21:02.900Z,1028.42
2023-04-03T10:22:02.899Z,1028.44
2023-04-03T10:23:02.878Z,1028.50
2023-04-03T10:24:02.875Z,1028.48
2023-04-03T10:25:02.933Z,1028.46
2023-04-03T10:26:02.965Z,1028.47
2023-04-03T10:27:02.835Z,1028.44
2023-04-03T10:28:02.833Z,1028.46
2023-04-03T10:29:02.840Z,1028.47
2023-04-03T10:30:02.826Z,1028.42
2023-04-03T10:31:02.880Z,1028.39
2023-04-03T10:32:02.783Z,1028.35
2023-04-03T10:33:02.838Z,1028.34
2023-04-03T10:34:02.785Z,1028.39
2023-04-03T10:35:05.426Z,1028.32
2023-04-03T10:36:02.783Z,1028.29
2023-04-03T10:37:02.728Z,1028.35
2023-04-03T10:38:02.742Z,1028.32
2023-04-03T10:39:02.714Z,1028.39
2023-04-03T10:40:02.740Z,1028.34
2023-04-03T10:41:02.675Z,1028.33
2023-04-03T10:42:15.697Z,1028.28
2023-04-03T10:43:03.653Z,1028.26
2023-04-03T10:44:02.652Z,1028.22
2023-04-03T10:45:02.696Z,1028.24
2023-04-03T10:46:02.659Z,1028.24
2023-04-03T10:47:02.610Z,1028.26
2023-04-03T10:48:02.618Z,1028.21
2023-04-03T10:49:02.586Z,1028.35
2023-04-03T10:50:02.629Z,1028.28
2023-04-03T10:51:02.577Z,1028.29
2023-04-03T10:52:02.566Z,1028.27
2023-04-03T10:53:02.546Z,1028.22
2023-04-03T10:54:02.544Z,1028.27
2023-04-03T10:55:02.529Z,1028.23
2023-04-03T10:56:02.548Z,1028.24
2023-04-03T10:57:11.799Z,1028.18
2023-04-03T10:58:03.617Z,1028.17
2023-04-03T10:59:02.484Z,1028.19
2023-04-03T11:00:02.490Z,1028.21
2023-04-03T11:01:02.503Z,1028.20
2023-04-03T11:02:02.538Z,1028.15
2023-04-03T11:03:02.497Z,1028.10
2023-04-03T11:04:02.651Z,1028.14
2023-04-03T11:05:02.420Z,1028.15
2023-04-03T11:06:02.435Z,1028.09
2023-04-03T11:07:02.395Z,1028.13
2023-04-03T11:08:02.410Z,1028.13
2023-04-03T11:09:02.373Z,1028.12
2023-04-03T11:10:02.399Z,1028.08
2023-04-03T11:11:02.358Z,1028.10
2023-04-03T11:12:02.348Z,1028.11
2023-04-03T11:13:02.363Z,1028.12
2023-04-03T11:14:02.477Z,1028.04
2023-04-03T11:15:02.311Z,1028.10
2023-04-03T11:16:02.321Z,1028.05
2023-04-03T11:17:02.383Z,1028.11
2023-04-03T11:18:02.354Z,1028.06
2023-04-03T11:19:02.264Z,1028.09
2023-04-03T11:20:02.275Z,1028.01
2023-04-03T11:21:02.252Z,1028.07
2023-04-03T11:22:02.254Z,1028.02
2023-04-03T11:23:02.234Z,1028.09
2023-04-03T11:24:02.212Z,1028.08
2023-04-03T11:25:02.225Z,1028.08
2023-04-03T11:26:02.191Z,1028.07
2023-04-03T11:27:02.177Z,1027.97
2023-04-03T11:28:02.177Z,1028.03
2023-04-03T11:29:02.187Z,1028.08
2023-04-03T11:30:02.264Z,1028.04
2023-04-03T11:31:02.217Z,1027.98
2023-04-03T11:32:02.131Z,1027.98
2023-04-03T11:33:02.152Z,1027.98
2023-04-03T11:34:02.130Z,1028.04
2023-04-03T11:35:02.092Z,1028.03
2023-04-03T11:36:05.483Z,1027.98
2023-04-03T11:37:03.109Z,1027.95
2023-04-03T11:38:02.056Z,1028.02
2023-04-03T11:39:02.043Z,1028.01
2023-04-03T11:40:02.045Z,1028.01
2023-04-03T11:41:02.065Z,1028.00
2023-04-03T11:42:12.483Z,1028.00
2023-04-03T11:43:02.999Z,1027.98
2023-04-03T11:44:02.000Z,1028.01
2023-04-03T11:45:01.975Z,1027.98
2023-04-03T11:46:02.226Z,1028.01
2023-04-03T11:47:01.981Z,1027.97
2023-04-03T11:48:12.982Z,1028.03
2023-04-03T11:49:02.935Z,1027.96
2023-04-03T11:50:01.934Z,1027.95
2023-04-03T11:51:01.947Z,1028.06
2023-04-03T11:52:01.902Z,1027.96
2023-04-03T11:53:01.918Z,1027.98
2023-04-03T11:54:01.929Z,1028.07
2023-04-03T11:55:01.878Z,1028.01
2023-04-03T11:56:01.879Z,1027.97
2023-04-03T11:57:01.867Z,1028.02
2023-04-03T11:58:01.871Z,1028.03
2023-04-03T11:59:01.823Z,1028.00
2023-04-03T12:00:01.854Z,1028.03
2023-04-03T12:01:01.805Z,1028.07
2023-04-03T12:02:01.944Z,1028.05
2023-04-03T12:03:02.023Z,1028.05
2023-04-03T12:04:01.891Z,1028.02
2023-04-03T12:05:01.750Z,1028.03
2023-04-03T12:06:01.758Z,1028.02